sensor_id;sensor_type;location;lat;lon;timestamp;pressure;altitude;pressure_sealevel;temperature
71564;BMP180;59391;52.504;13.438;2023-06-14T00:00:34;101445.00;;;20.30
71564;BMP180;59391;52.504;13.438;2023-06-14T00:03:00;101450.00;;;20.30
71564;BMP180;59391;52.504;13.438;2023-06-14T00:05:26;101451.00;;;20.30
71564;BMP180;59391;52.504;13.438;2023-06-14T00:07:51;101440.00;;;20.30
71564;BMP180;59391;52.504;13.438;2023-06-14T00:10:19;101457.00;;;20.30
71564;BMP180;59391;52.504;13.438;2023-06-14T00:12:45;101444.00;;;20.20
71564;BMP180;59391;52.504;13.438;2023-06-14T00:15:10;101426.00;;;20.20
71564;BMP180;59391;52.504;13.438;2023-06-14T00:17:36;101446.00;;;20.20
71564;BMP180;59391;52.504;13.438;2023-06-14T00:20:05;101434.00;;;20.20
71564;BMP180;59391;52.504;13.438;2023-06-14T00:22:33;101460.00;;;20.10
71564;BMP180;59391;52.504;13.438;2023-06-14T00:24:59;101442.00;;;20.10
71564;BMP180;59391;52.504;13.438;2023-06-14T00:27:25;101451.00;;;20.10
71564;BMP180;59391;52.504;13.438;2023-06-14T00:29:51;101448.00;;;20.10
71564;BMP180;59391;52.504;13.438;2023-06-14T00:32:18;101441.00;;;20.00
71564;BMP180;59391;52.504;13.438;2023-06-14T00:34:44;101459.00;;;20.00
71564;BMP180;59391;52.504;13.438;2023-06-14T00:37:09;101455.00;;;20.00
71564;BMP180;59391;52.504;13.438;2023-06-14T00:39:35;101454.00;;;20.00
71564;BMP180;59391;52.504;13.438;2023-06-14T00:42:01;101453.00;;;20.00
71564;BMP180;59391;52.504;13.438;2023-06-14T00:44:27;101447.00;;;19.90
71564;BMP180;59391;52.504;13.438;2023-06-14T00:46:52;101460.00;;;19.90
71564;BMP180;59391;52.504;13.438;2023-06-14T00:49:19;101458.00;;;19.90
71564;BMP180;59391;52.504;13.438;2023-06-14T00:51:45;101458.00;;;19.90
71564;BMP180;59391;52.504;13.438;2023-06-14T00:54:14;101452.00;;;19.90
71564;BMP180;59391;52.504;13.438;2023-06-14T00:56:41;101458.00;;;19.80
71564;BMP180;59391;52.504;13.438;2023-06-14T00:59:08;101459.00;;;19.80
71564;BMP180;59391;52.504;13.438;2023-06-14T01:01:36;101444.00;;;19.80
71564;BMP180;59391;52.504;13.438;2023-06-14T01:04:03;101439.00;;;19.80
71564;BMP180;59391;52.504;13.438;2023-06-14T01:06:54;101444.00;;;19.70
71564;BMP180;59391;52.504;13.438;2023-06-14T01:09:46;101457.00;;;19.70
71564;BMP180;59391;52.504;13.438;2023-06-14T01:12:31;101450.00;;;19.60
71564;BMP180;59391;52.504;13.438;2023-06-14T01:15:01;101440.00;;;19.60
71564;BMP180;59391;52.504;13.438;2023-06-14T01:17:29;101455.00;;;19.60
71564;BMP180;59391;52.504;13.438;2023-06-14T01:20:01;101456.00;;;19.60
71564;BMP180;59391;52.504;13.438;2023-06-14T01:22:27;101451.00;;;19.60
71564;BMP180;59391;52.504;13.438;2023-06-14T01:24:53;101441.00;;;19.50
71564;BMP180;59391;52.504;13.438;2023-06-14T01:27:23;101449.00;;;19.50
71564;BMP180;59391;52.504;13.438;2023-06-14T01:29:55;101452.00;;;19.50
71564;BMP180;59391;52.504;13.438;2023-06-14T01:32:29;101450.00;;;19.50
71564;BMP180;59391;52.504;13.438;2023-06-14T01:34:55;101440.00;;;19.50
71564;BMP180;59391;52.504;13.438;2023-06-14T01:37:22;101433.00;;;19.50
71564;BMP180;59391;52.504;13.438;2023-06-14T01:39:48;101439.00;;;19.50
71564;BMP180;59391;52.504;13.438;2023-06-14T01:42:17;101440.00;;;19.50
71564;BMP180;59391;52.504;13.438;2023-06-14T01:44:44;101448.00;;;19.50
71564;BMP180;59391;52.504;13.438;2023-06-14T01:47:12;101434.00;;;19.50
71564;BMP180;59391;52.504;13.438;2023-06-14T01:49:38;101447.00;;;19.50
71564;BMP180;59391;52.504;13.438;2023-06-14T01:52:04;101440.00;;;19.40
71564;BMP180;59391;52.504;13.438;2023-06-14T01:54:31;101443.00;;;19.40
71564;BMP180;59391;52.504;13.438;2023-06-14T01:56:57;101451.00;;;19.40
71564;BMP180;59391;52.504;13.438;2023-06-14T01:59:22;101459.00;;;19.40
71564;BMP180;59391;52.504;13.438;2023-06-14T02:01:48;101451.00;;;19.40
71564;BMP180;59391;52.504;13.438;2023-06-14T02:04:14;101450.00;;;19.40
71564;BMP180;59391;52.504;13.438;2023-06-14T02:06:39;101448.00;;;19.40
71564;BMP180;59391;52.504;13.438;2023-06-14T02:09:05;101439.00;;;19.30
71564;BMP180;59391;52.504;13.438;2023-06-14T02:11:31;101457.00;;;19.30
71564;BMP180;59391;52.504;13.438;2023-06-14T02:13:56;101463.00;;;19.30
71564;BMP180;59391;52.504;13.438;2023-06-14T02:16:22;101458.00;;;19.30
71564;BMP180;59391;52.504;13.438;2023-06-14T02:18:48;101442.00;;;19.30
71564;BMP180;59391;52.504;13.438;2023-06-14T02:21:14;101441.00;;;19.30
71564;BMP180;59391;52.504;13.438;2023-06-14T02:23:40;101463.00;;;19.30
71564;BMP180;59391;52.504;13.438;2023-06-14T02:26:06;101455.00;;;19.30
71564;BMP180;59391;52.504;13.438;2023-06-14T02:28:31;101459.00;;;19.30
71564;BMP180;59391;52.504;13.438;2023-06-14T02:30:57;101458.00;;;19.30
71564;BMP180;59391;52.504;13.438;2023-06-14T02:33:23;101441.00;;;19.30
71564;BMP180;59391;52.504;13.438;2023-06-14T02:35:48;101445.00;;;19.30
71564;BMP180;59391;52.504;13.438;2023-06-14T02:38:14;101457.00;;;19.30
71564;BMP180;59391;52.504;13.438;2023-06-14T02:40:40;101445.00;;;19.30
71564;BMP180;59391;52.504;13.438;2023-06-14T02:43:08;101461.00;;;19.30
71564;BMP180;59391;52.504;13.438;2023-06-14T02:45:33;101459.00;;;19.30
71564;BMP180;59391;52.504;13.438;2023-06-14T02:47:59;101451.00;;;19.20
71564;BMP180;59391;52.504;13.438;2023-06-14T02:50:25;101458.00;;;19.20
71564;BMP180;59391;52.504;13.438;2023-06-14T02:52:51;101470.00;;;19.20
71564;BMP180;59391;52.504;13.438;2023-06-14T02:55:18;101454.00;;;19.20
71564;BMP180;59391;52.504;13.438;2023-06-14T02:57:43;101461.00;;;19.20
71564;BMP180;59391;52.504;13.438;2023-06-14T03:00:10;101461.00;;;19.10
71564;BMP180;59391;52.504;13.438;2023-06-14T03:02:37;101457.00;;;19.10
71564;BMP180;59391;52.504;13.438;2023-06-14T03:05:02;101460.00;;;19.10
71564;BMP180;59391;52.504;13.438;2023-06-14T03:07:28;101458.00;;;19.10
71564;BMP180;59391;52.504;13.438;2023-06-14T03:09:55;101452.00;;;19.10
71564;BMP180;59391;52.504;13.438;2023-06-14T03:12:20;101452.00;;;19.10
71564;BMP180;59391;52.504;13.438;2023-06-14T03:14:46;101447.00;;;19.10
71564;BMP180;59391;52.504;13.438;2023-06-14T03:17:12;101457.00;;;19.10
71564;BMP180;59391;52.504;13.438;2023-06-14T03:19:37;101461.00;;;19.10
71564;BMP180;59391;52.504;13.438;2023-06-14T03:22:03;101458.00;;;19.10
71564;BMP180;59391;52.504;13.438;2023-06-14T03:24:29;101459.00;;;19.10
71564;BMP180;59391;52.504;13.438;2023-06-14T03:26:57;101459.00;;;19.10
71564;BMP180;59391;52.504;13.438;2023-06-14T03:29:22;101460.00;;;19.10
71564;BMP180;59391;52.504;13.438;2023-06-14T03:32:02;101458.00;;;19.10
71564;BMP180;59391;52.504;13.438;2023-06-14T03:34:28;101453.00;;;19.10
71564;BMP180;59391;52.504;13.438;2023-06-14T03:36:54;101446.00;;;19.10
71564;BMP180;59391;52.504;13.438;2023-06-14T03:39:21;101466.00;;;19.00
71564;BMP180;59391;52.504;13.438;2023-06-14T03:41:46;101470.00;;;19.00
71564;BMP180;59391;52.504;13.438;2023-06-14T03:44:16;101460.00;;;19.00
71564;BMP180;59391;52.504;13.438;2023-06-14T03:46:43;101471.00;;;19.00
71564;BMP180;59391;52.504;13.438;2023-06-14T03:49:08;101465.00;;;19.00
71564;BMP180;59391;52.504;13.438;2023-06-14T03:51:34;101465.00;;;19.00
71564;BMP180;59391;52.504;13.438;2023-06-14T03:54:01;101455.00;;;19.00
71564;BMP180;59391;52.504;13.438;2023-06-14T03:56:26;101477.00;;;19.00
71564;BMP180;59391;52.504;13.438;2023-06-14T03:58:52;101475.00;;;19.00
71564;BMP180;59391;52.504;13.438;2023-06-14T04:01:18;101476.00;;;19.00
71564;BMP180;59391;52.504;13.438;2023-06-14T04:03:43;101464.00;;;19.10
71564;BMP180;59391;52.504;13.438;2023-06-14T04:06:09;101475.00;;;19.10
71564;BMP180;59391;52.504;13.438;2023-06-14T04:08:35;101489.00;;;19.10
71564;BMP180;59391;52.504;13.438;2023-06-14T04:11:01;101484.00;;;19.10
71564;BMP180;59391;52.504;13.438;2023-06-14T04:13:27;101499.00;;;19.20
71564;BMP180;59391;52.504;13.438;2023-06-14T04:15:53;101498.00;;;19.20
71564;BMP180;59391;52.504;13.438;2023-06-14T04:18:19;101491.00;;;19.20
71564;BMP180;59391;52.504;13.438;2023-06-14T04:20:46;101493.00;;;19.30
71564;BMP180;59391;52.504;13.438;2023-06-14T04:23:14;101496.00;;;19.30
71564;BMP180;59391;52.504;13.438;2023-06-14T04:25:40;101485.00;;;19.40
71564;BMP180;59391;52.504;13.438;2023-06-14T04:28:06;101495.00;;;19.40
71564;BMP180;59391;52.504;13.438;2023-06-14T04:30:34;101491.00;;;19.50
71564;BMP180;59391;52.504;13.438;2023-06-14T04:33:01;101496.00;;;19.50
71564;BMP180;59391;52.504;13.438;2023-06-14T04:35:32;101494.00;;;19.50
71564;BMP180;59391;52.504;13.438;2023-06-14T04:37:58;101482.00;;;19.50
71564;BMP180;59391;52.504;13.438;2023-06-14T04:40:25;101476.00;;;19.60
71564;BMP180;59391;52.504;13.438;2023-06-14T04:42:50;101491.00;;;19.60
71564;BMP180;59391;52.504;13.438;2023-06-14T04:45:16;101493.00;;;19.60
71564;BMP180;59391;52.504;13.438;2023-06-14T04:47:42;101491.00;;;19.60
71564;BMP180;59391;52.504;13.438;2023-06-14T04:50:09;101483.00;;;19.70
71564;BMP180;59391;52.504;13.438;2023-06-14T04:52:36;101497.00;;;19.70
71564;BMP180;59391;52.504;13.438;2023-06-14T04:55:03;101488.00;;;19.70
71564;BMP180;59391;52.504;13.438;2023-06-14T04:57:29;101493.00;;;19.70
71564;BMP180;59391;52.504;13.438;2023-06-14T04:59:54;101505.00;;;19.80
71564;BMP180;59391;52.504;13.438;2023-06-14T05:02:25;101494.00;;;19.80
71564;BMP180;59391;52.504;13.438;2023-06-14T05:04:51;101496.00;;;19.80
71564;BMP180;59391;52.504;13.438;2023-06-14T05:07:17;101499.00;;;19.90
71564;BMP180;59391;52.504;13.438;2023-06-14T05:09:44;101494.00;;;19.90
71564;BMP180;59391;52.504;13.438;2023-06-14T05:12:09;101497.00;;;19.90
71564;BMP180;59391;52.504;13.438;2023-06-14T05:14:35;101494.00;;;19.90
71564;BMP180;59391;52.504;13.438;2023-06-14T05:17:01;101497.00;;;20.00
71564;BMP180;59391;52.504;13.438;2023-06-14T05:19:28;101494.00;;;20.00
71564;BMP180;59391;52.504;13.438;2023-06-14T05:21:54;101505.00;;;20.10
71564;BMP180;59391;52.504;13.438;2023-06-14T05:24:19;101498.00;;;20.20
71564;BMP180;59391;52.504;13.438;2023-06-14T05:26:46;101515.00;;;20.30
71564;BMP180;59391;52.504;13.438;2023-06-14T05:29:12;101499.00;;;20.40
71564;BMP180;59391;52.504;13.438;2023-06-14T05:31:38;101529.00;;;20.40
71564;BMP180;59391;52.504;13.438;2023-06-14T05:34:04;101494.00;;;20.30
71564;BMP180;59391;52.504;13.438;2023-06-14T05:36:30;101530.00;;;20.60
71564;BMP180;59391;52.504;13.438;2023-06-14T05:38:55;101458.00;;;20.60
71564;BMP180;59391;52.504;13.438;2023-06-14T05:41:27;101523.00;;;20.60
71564;BMP180;59391;52.504;13.438;2023-06-14T05:43:55;101484.00;;;20.70
71564;BMP180;59391;52.504;13.438;2023-06-14T05:46:22;101481.00;;;20.80
71564;BMP180;59391;52.504;13.438;2023-06-14T05:48:51;101517.00;;;20.80
71564;BMP180;59391;52.504;13.438;2023-06-14T05:51:18;101531.00;;;20.90
71564;BMP180;59391;52.504;13.438;2023-06-14T05:53:53;101539.00;;;20.70
71564;BMP180;59391;52.504;13.438;2023-06-14T05:56:19;101548.00;;;20.90
71564;BMP180;59391;52.504;13.438;2023-06-14T05:58:45;101540.00;;;20.90
71564;BMP180;59391;52.504;13.438;2023-06-14T06:01:12;101540.00;;;20.90
71564;BMP180;59391;52.504;13.438;2023-06-14T06:03:39;101554.00;;;20.90
71564;BMP180;59391;52.504;13.438;2023-06-14T06:06:05;101498.00;;;20.90
71564;BMP180;59391;52.504;13.438;2023-06-14T06:08:30;101514.00;;;20.90
71564;BMP180;59391;52.504;13.438;2023-06-14T06:10:56;101494.00;;;20.90
71564;BMP180;59391;52.504;13.438;2023-06-14T06:13:22;101544.00;;;20.80
71564;BMP180;59391;52.504;13.438;2023-06-14T06:15:48;101526.00;;;20.90
71564;BMP180;59391;52.504;13.438;2023-06-14T06:18:14;101539.00;;;21.00
71564;BMP180;59391;52.504;13.438;2023-06-14T06:20:40;101534.00;;;20.90
71564;BMP180;59391;52.504;13.438;2023-06-14T06:23:05;101536.00;;;20.90
71564;BMP180;59391;52.504;13.438;2023-06-14T06:25:31;101529.00;;;20.90
71564;BMP180;59391;52.504;13.438;2023-06-14T06:27:57;101528.00;;;20.90
71564;BMP180;59391;52.504;13.438;2023-06-14T06:30:24;101535.00;;;20.90
71564;BMP180;59391;52.504;13.438;2023-06-14T06:32:51;101522.00;;;21.00
71564;BMP180;59391;52.504;13.438;2023-06-14T06:35:17;101529.00;;;21.00
71564;BMP180;59391;52.504;13.438;2023-06-14T06:37:43;101524.00;;;20.90
71564;BMP180;59391;52.504;13.438;2023-06-14T06:40:09;101532.00;;;20.90
71564;BMP180;59391;52.504;13.438;2023-06-14T06:42:36;101535.00;;;20.90
71564;BMP180;59391;52.504;13.438;2023-06-14T06:45:02;101527.00;;;20.90
71564;BMP180;59391;52.504;13.438;2023-06-14T06:47:27;101536.00;;;21.00
71564;BMP180;59391;52.504;13.438;2023-06-14T06:49:56;101544.00;;;21.00
71564;BMP180;59391;52.504;13.438;2023-06-14T06:52:21;101543.00;;;21.10
71564;BMP180;59391;52.504;13.438;2023-06-14T06:54:47;101543.00;;;21.10
71564;BMP180;59391;52.504;13.438;2023-06-14T06:57:17;101542.00;;;21.20
71564;BMP180;59391;52.504;13.438;2023-06-14T06:59:42;101539.00;;;21.30
71564;BMP180;59391;52.504;13.438;2023-06-14T07:02:08;101546.00;;;21.30
71564;BMP180;59391;52.504;13.438;2023-06-14T07:04:33;101550.00;;;21.40
71564;BMP180;59391;52.504;13.438;2023-06-14T07:06:59;101551.00;;;21.40
71564;BMP180;59391;52.504;13.438;2023-06-14T07:09:25;101555.00;;;21.50
71564;BMP180;59391;52.504;13.438;2023-06-14T07:11:50;101555.00;;;21.60
71564;BMP180;59391;52.504;13.438;2023-06-14T07:14:16;101551.00;;;21.70
71564;BMP180;59391;52.504;13.438;2023-06-14T07:16:42;101565.00;;;21.80
71564;BMP180;59391;52.504;13.438;2023-06-14T07:19:08;101562.00;;;21.90
71564;BMP180;59391;52.504;13.438;2023-06-14T07:21:35;101571.00;;;22.00
71564;BMP180;59391;52.504;13.438;2023-06-14T07:24:05;101561.00;;;22.10
71564;BMP180;59391;52.504;13.438;2023-06-14T07:26:32;101568.00;;;22.10
71564;BMP180;59391;52.504;13.438;2023-06-14T07:28:58;101569.00;;;22.20
71564;BMP180;59391;52.504;13.438;2023-06-14T07:31:23;101572.00;;;22.40
71564;BMP180;59391;52.504;13.438;2023-06-14T07:33:52;101583.00;;;22.50
71564;BMP180;59391;52.504;13.438;2023-06-14T07:36:17;101574.00;;;22.60
71564;BMP180;59391;52.504;13.438;2023-06-14T07:38:43;101577.00;;;22.70
71564;BMP180;59391;52.504;13.438;2023-06-14T07:41:09;101579.00;;;22.80
71564;BMP180;59391;52.504;13.438;2023-06-14T07:43:35;101577.00;;;22.80
71564;BMP180;59391;52.504;13.438;2023-06-14T07:46:00;101572.00;;;22.90
71564;BMP180;59391;52.504;13.438;2023-06-14T07:48:27;101570.00;;;22.90
71564;BMP180;59391;52.504;13.438;2023-06-14T07:50:53;101575.00;;;23.00
71564;BMP180;59391;52.504;13.438;2023-06-14T07:53:18;101576.00;;;23.10
71564;BMP180;59391;52.504;13.438;2023-06-14T07:55:44;101568.00;;;23.10
71564;BMP180;59391;52.504;13.438;2023-06-14T07:58:10;101580.00;;;23.20
71564;BMP180;59391;52.504;13.438;2023-06-14T08:00:36;101566.00;;;23.30
71564;BMP180;59391;52.504;13.438;2023-06-14T08:03:04;101563.00;;;23.30
71564;BMP180;59391;52.504;13.438;2023-06-14T08:05:33;101541.00;;;23.40
71564;BMP180;59391;52.504;13.438;2023-06-14T08:08:00;101552.00;;;23.50
71564;BMP180;59391;52.504;13.438;2023-06-14T08:10:27;101547.00;;;23.50
71564;BMP180;59391;52.504;13.438;2023-06-14T08:12:52;101562.00;;;23.60
71564;BMP180;59391;52.504;13.438;2023-06-14T08:15:18;101557.00;;;23.60
71564;BMP180;59391;52.504;13.438;2023-06-14T08:17:44;101554.00;;;23.70
71564;BMP180;59391;52.504;13.438;2023-06-14T08:20:11;101545.00;;;23.70
71564;BMP180;59391;52.504;13.438;2023-06-14T08:22:39;101563.00;;;23.80
71564;BMP180;59391;52.504;13.438;2023-06-14T08:25:08;101552.00;;;23.90
71564;BMP180;59391;52.504;13.438;2023-06-14T08:27:34;101562.00;;;24.00
71564;BMP180;59391;52.504;13.438;2023-06-14T08:30:00;101563.00;;;24.10
71564;BMP180;59391;52.504;13.438;2023-06-14T08:32:25;101552.00;;;24.20
71564;BMP180;59391;52.504;13.438;2023-06-14T08:34:51;101556.00;;;24.30
71564;BMP180;59391;52.504;13.438;2023-06-14T08:37:17;101557.00;;;24.40
71564;BMP180;59391;52.504;13.438;2023-06-14T08:39:42;101560.00;;;24.40
71564;BMP180;59391;52.504;13.438;2023-06-14T08:42:09;101543.00;;;24.50
71564;BMP180;59391;52.504;13.438;2023-06-14T08:44:36;101555.00;;;24.50
71564;BMP180;59391;52.504;13.438;2023-06-14T08:47:02;101548.00;;;24.50
71564;BMP180;59391;52.504;13.438;2023-06-14T08:49:31;101553.00;;;24.60
71564;BMP180;59391;52.504;13.438;2023-06-14T08:52:00;101551.00;;;24.60
71564;BMP180;59391;52.504;13.438;2023-06-14T08:54:30;101554.00;;;24.60
71564;BMP180;59391;52.504;13.438;2023-06-14T08:56:57;101558.00;;;24.60
71564;BMP180;59391;52.504;13.438;2023-06-14T08:59:28;101558.00;;;24.70
71564;BMP180;59391;52.504;13.438;2023-06-14T09:01:56;101558.00;;;24.80
71564;BMP180;59391;52.504;13.438;2023-06-14T09:04:25;101555.00;;;24.90
71564;BMP180;59391;52.504;13.438;2023-06-14T09:06:55;101556.00;;;25.00
71564;BMP180;59391;52.504;13.438;2023-06-14T09:09:22;101548.00;;;25.10
71564;BMP180;59391;52.504;13.438;2023-06-14T09:11:51;101556.00;;;25.20
71564;BMP180;59391;52.504;13.438;2023-06-14T09:14:19;101560.00;;;25.20
71564;BMP180;59391;52.504;13.438;2023-06-14T09:16:45;101556.00;;;25.30
71564;BMP180;59391;52.504;13.438;2023-06-14T09:19:24;101557.00;;;25.30
71564;BMP180;59391;52.504;13.438;2023-06-14T09:21:50;101559.00;;;25.40
71564;BMP180;59391;52.504;13.438;2023-06-14T09:24:18;101563.00;;;25.40
71564;BMP180;59391;52.504;13.438;2023-06-14T09:26:47;101558.00;;;25.50
71564;BMP180;59391;52.504;13.438;2023-06-14T09:29:13;101563.00;;;25.50
71564;BMP180;59391;52.504;13.438;2023-06-14T09:31:38;101561.00;;;25.50
71564;BMP180;59391;52.504;13.438;2023-06-14T09:34:05;101562.00;;;25.50
71564;BMP180;59391;52.504;13.438;2023-06-14T09:36:32;101556.00;;;25.60
71564;BMP180;59391;52.504;13.438;2023-06-14T09:39:00;101567.00;;;25.60
71564;BMP180;59391;52.504;13.438;2023-06-14T09:41:38;101561.00;;;25.60
71564;BMP180;59391;52.504;13.438;2023-06-14T09:44:07;101563.00;;;25.70
71564;BMP180;59391;52.504;13.438;2023-06-14T09:46:34;101564.00;;;25.70
71564;BMP180;59391;52.504;13.438;2023-06-14T09:49:02;101561.00;;;25.80
71564;BMP180;59391;52.504;13.438;2023-06-14T09:51:29;101564.00;;;25.80
71564;BMP180;59391;52.504;13.438;2023-06-14T09:54:03;101574.00;;;25.80
71564;BMP180;59391;52.504;13.438;2023-06-14T09:56:37;101566.00;;;25.90
71564;BMP180;59391;52.504;13.438;2023-06-14T09:59:05;101557.00;;;26.00
71564;BMP180;59391;52.504;13.438;2023-06-14T10:01:35;101574.00;;;26.00
71564;BMP180;59391;52.504;13.438;2023-06-14T10:04:06;101570.00;;;26.00
71564;BMP180;59391;52.504;13.438;2023-06-14T10:06:43;101561.00;;;26.00
71564;BMP180;59391;52.504;13.438;2023-06-14T10:09:10;101567.00;;;26.00
71564;BMP180;59391;52.504;13.438;2023-06-14T10:11:37;101558.00;;;26.00
71564;BMP180;59391;52.504;13.438;2023-06-14T10:14:10;101558.00;;;26.00
71564;BMP180;59391;52.504;13.438;2023-06-14T10:17:06;101567.00;;;26.00
71564;BMP180;59391;52.504;13.438;2023-06-14T10:19:45;101566.00;;;26.00
71564;BMP180;59391;52.504;13.438;2023-06-14T10:22:21;101566.00;;;26.00
71564;BMP180;59391;52.504;13.438;2023-06-14T10:24:48;101556.00;;;26.00
71564;BMP180;59391;52.504;13.438;2023-06-14T10:27:16;101564.00;;;25.90
71564;BMP180;59391;52.504;13.438;2023-06-14T10:32:26;101561.00;;;25.90
71564;BMP180;59391;52.504;13.438;2023-06-14T10:35:04;101561.00;;;25.80
71564;BMP180;59391;52.504;13.438;2023-06-14T10:37:32;101558.00;;;25.80
71564;BMP180;59391;52.504;13.438;2023-06-14T10:39:57;101546.00;;;25.80
71564;BMP180;59391;52.504;13.438;2023-06-14T10:42:31;101551.00;;;25.80
71564;BMP180;59391;52.504;13.438;2023-06-14T10:44:58;101547.00;;;25.80
71564;BMP180;59391;52.504;13.438;2023-06-14T10:47:28;101551.00;;;25.80
71564;BMP180;59391;52.504;13.438;2023-06-14T10:52:28;101542.00;;;25.80
71564;BMP180;59391;52.504;13.438;2023-06-14T10:55:19;101540.00;;;25.80
71564;BMP180;59391;52.504;13.438;2023-06-14T10:57:52;101538.00;;;25.90
71564;BMP180;59391;52.504;13.438;2023-06-14T11:00:23;101544.00;;;26.00
71564;BMP180;59391;52.504;13.438;2023-06-14T11:05:55;101534.00;;;26.20
71564;BMP180;59391;52.504;13.438;2023-06-14T11:09:20;101536.00;;;26.20
71564;BMP180;59391;52.504;13.438;2023-06-14T11:11:48;101539.00;;;26.30
71564;BMP180;59391;52.504;13.438;2023-06-14T11:14:14;101528.00;;;26.40
71564;BMP180;59391;52.504;13.438;2023-06-14T11:16:40;101522.00;;;26.50
71564;BMP180;59391;52.504;13.438;2023-06-14T11:19:06;101524.00;;;26.60
71564;BMP180;59391;52.504;13.438;2023-06-14T11:21:39;101515.00;;;26.80
71564;BMP180;59391;52.504;13.438;2023-06-14T11:24:10;101519.00;;;26.90
71564;BMP180;59391;52.504;13.438;2023-06-14T11:26:38;101522.00;;;27.00
71564;BMP180;59391;52.504;13.438;2023-06-14T11:29:04;101511.00;;;27.20
71564;BMP180;59391;52.504;13.438;2023-06-14T11:31:30;101511.00;;;27.30
71564;BMP180;59391;52.504;13.438;2023-06-14T11:33:58;101513.00;;;27.40
71564;BMP180;59391;52.504;13.438;2023-06-14T11:36:30;101511.00;;;27.50
71564;BMP180;59391;52.504;13.438;2023-06-14T11:39:05;101508.00;;;27.60
71564;BMP180;59391;52.504;13.438;2023-06-14T11:41:45;101514.00;;;27.70
71564;BMP180;59391;52.504;13.438;2023-06-14T11:44:11;101510.00;;;27.70
71564;BMP180;59391;52.504;13.438;2023-06-14T11:46:38;101504.00;;;27.70
71564;BMP180;59391;52.504;13.438;2023-06-14T11:49:04;101503.00;;;27.70
71564;BMP180;59391;52.504;13.438;2023-06-14T11:51:33;101502.00;;;27.70
71564;BMP180;59391;52.504;13.438;2023-06-14T11:54:01;101490.00;;;27.80
71564;BMP180;59391;52.504;13.438;2023-06-14T11:56:29;101485.00;;;27.90
71564;BMP180;59391;52.504;13.438;2023-06-14T11:58:55;101479.00;;;28.00
71564;BMP180;59391;52.504;13.438;2023-06-14T12:01:22;101479.00;;;28.20
71564;BMP180;59391;52.504;13.438;2023-06-14T12:03:54;101485.00;;;28.40
71564;BMP180;59391;52.504;13.438;2023-06-14T12:06:28;101481.00;;;28.70
71564;BMP180;59391;52.504;13.438;2023-06-14T12:08:56;101473.00;;;29.00
71564;BMP180;59391;52.504;13.438;2023-06-14T12:11:22;101468.00;;;29.30
71564;BMP180;59391;52.504;13.438;2023-06-14T12:13:49;101464.00;;;29.50
71564;BMP180;59391;52.504;13.438;2023-06-14T12:16:14;101470.00;;;29.70
71564;BMP180;59391;52.504;13.438;2023-06-14T12:18:41;101454.00;;;29.80
71564;BMP180;59391;52.504;13.438;2023-06-14T12:21:09;101458.00;;;29.90
71564;BMP180;59391;52.504;13.438;2023-06-14T12:23:47;101452.00;;;30.00
71564;BMP180;59391;52.504;13.438;2023-06-14T12:26:19;101449.00;;;30.10
71564;BMP180;59391;52.504;13.438;2023-06-14T12:28:47;101451.00;;;30.30
71564;BMP180;59391;52.504;13.438;2023-06-14T12:31:15;101443.00;;;30.50
71564;BMP180;59391;52.504;13.438;2023-06-14T12:33:41;101450.00;;;30.70
71564;BMP180;59391;52.504;13.438;2023-06-14T12:36:08;101450.00;;;31.10
71564;BMP180;59391;52.504;13.438;2023-06-14T12:38:35;101446.00;;;31.60
71564;BMP180;59391;52.504;13.438;2023-06-14T12:41:01;101441.00;;;32.20
71564;BMP180;59391;52.504;13.438;2023-06-14T12:43:27;101448.00;;;32.90
71564;BMP180;59391;52.504;13.438;2023-06-14T12:45:53;101432.00;;;33.40
71564;BMP180;59391;52.504;13.438;2023-06-14T12:48:20;101448.00;;;33.90
71564;BMP180;59391;52.504;13.438;2023-06-14T12:50:46;101448.00;;;34.30
71564;BMP180;59391;52.504;13.438;2023-06-14T12:53:12;101448.00;;;34.60
71564;BMP180;59391;52.504;13.438;2023-06-14T12:55:37;101432.00;;;34.90
71564;BMP180;59391;52.504;13.438;2023-06-14T12:58:03;101436.00;;;35.30
71564;BMP180;59391;52.504;13.438;2023-06-14T13:00:29;101438.00;;;35.80
71564;BMP180;59391;52.504;13.438;2023-06-14T13:02:56;101430.00;;;36.20
71564;BMP180;59391;52.504;13.438;2023-06-14T13:05:23;101431.00;;;36.50
71564;BMP180;59391;52.504;13.438;2023-06-14T13:07:49;101424.00;;;36.60
71564;BMP180;59391;52.504;13.438;2023-06-14T13:10:15;101435.00;;;36.50
71564;BMP180;59391;52.504;13.438;2023-06-14T13:12:41;101438.00;;;36.20
71564;BMP180;59391;52.504;13.438;2023-06-14T13:15:07;101428.00;;;35.90
71564;BMP180;59391;52.504;13.438;2023-06-14T13:17:35;101426.00;;;35.50
71564;BMP180;59391;52.504;13.438;2023-06-14T13:20:08;101419.00;;;35.10
71564;BMP180;59391;52.504;13.438;2023-06-14T13:22:34;101422.00;;;34.60
71564;BMP180;59391;52.504;13.438;2023-06-14T13:25:01;101422.00;;;34.10
71564;BMP180;59391;52.504;13.438;2023-06-14T13:27:27;101404.00;;;33.70
71564;BMP180;59391;52.504;13.438;2023-06-14T13:29:53;101414.00;;;33.40
71564;BMP180;59391;52.504;13.438;2023-06-14T13:32:22;101411.00;;;33.10
71564;BMP180;59391;52.504;13.438;2023-06-14T13:34:48;101411.00;;;32.80
71564;BMP180;59391;52.504;13.438;2023-06-14T13:37:14;101388.00;;;32.60
71564;BMP180;59391;52.504;13.438;2023-06-14T13:39:39;101386.00;;;32.40
71564;BMP180;59391;52.504;13.438;2023-06-14T13:42:05;101386.00;;;32.30
71564;BMP180;59391;52.504;13.438;2023-06-14T13:44:31;101391.00;;;32.10
71564;BMP180;59391;52.504;13.438;2023-06-14T13:46:57;101390.00;;;32.00
71564;BMP180;59391;52.504;13.438;2023-06-14T13:49:22;101395.00;;;31.80
71564;BMP180;59391;52.504;13.438;2023-06-14T13:51:48;101375.00;;;31.80
71564;BMP180;59391;52.504;13.438;2023-06-14T13:54:14;101391.00;;;31.70